createdAt,value
2022-08-30T00:00:04.160Z,13.07
2022-08-30T00:03:07.635Z,13.17
2022-08-30T00:06:09.816Z,13.53
2022-08-30T00:09:12.149Z,12.93
2022-08-30T00:12:13.807Z,12.93
2022-08-30T00:15:16.109Z,13.53
2022-08-30T00:18:18.344Z,13.53
2022-08-30T00:21:20.240Z,13.97
2022-08-30T00:24:21.864Z,13.70
2022-08-30T00:27:23.534Z,14.53
2022-08-30T00:30:25.186Z,14.60
2022-08-30T00:33:26.820Z,13.97
2022-08-30T00:36:28.446Z,14.07
2022-08-30T00:39:30.083Z,14.70
2022-08-30T00:42:32.231Z,14.27
2022-08-30T00:45:35.876Z,14.47
2022-08-30T00:48:40.804Z,14.23
2022-08-30T00:51:42.752Z,14.50
2022-08-30T00:54:45.636Z,14.87
2022-08-30T00:57:48.015Z,14.53
2022-08-30T01:00:51.264Z,15.17
2022-08-30T01:03:53.580Z,15.07
2022-08-30T01:06:55.279Z,15.57
2022-08-30T01:09:56.966Z,14.87
2022-08-30T01:12:59.060Z,14.43
2022-08-30T01:16:01.123Z,15.30
2022-08-30T01:19:04.473Z,15.13
2022-08-30T01:22:17.313Z,14.97
2022-08-30T01:25:20.991Z,14.73
2022-08-30T01:28:24.963Z,15.40
2022-08-30T01:31:26.697Z,15.30
2022-08-30T01:34:28.444Z,15.13
2022-08-30T01:37:31.779Z,15.60
2022-08-30T01:40:33.444Z,15.43
2022-08-30T01:43:35.160Z,15.30
2022-08-30T01:46:39.877Z,16.17
2022-08-30T01:49:41.882Z,14.90
2022-08-30T01:52:43.469Z,15.70
2022-08-30T01:55:45.160Z,17.07
2022-08-30T01:58:47.936Z,17.17
2022-08-30T02:01:49.628Z,16.33
2022-08-30T02:04:51.945Z,16.73
2022-08-30T02:07:53.916Z,16.37
2022-08-30T02:10:55.579Z,16.37
2022-08-30T02:13:57.294Z,16.07
2022-08-30T02:16:59.658Z,15.90
2022-08-30T02:20:01.505Z,16.97
2022-08-30T02:23:03.172Z,16.27
2022-08-30T02:26:05.286Z,16.43
2022-08-30T02:29:06.898Z,17.03
2022-08-30T02:32:08.553Z,16.60
2022-08-30T02:35:10.274Z,16.60
2022-08-30T02:38:12.277Z,17.00
2022-08-30T02:41:14.109Z,17.23
2022-08-30T02:44:15.934Z,17.20
2022-08-30T02:47:17.566Z,16.53
2022-08-30T02:50:19.290Z,15.97
2022-08-30T02:53:21.646Z,16.20
2022-08-30T02:56:23.272Z,16.27
2022-08-30T02:59:27.724Z,16.90
2022-08-30T03:02:30.353Z,16.60
2022-08-30T03:05:33.071Z,17.13
2022-08-30T03:08:34.719Z,17.27
2022-08-30T03:11:36.367Z,16.90
2022-08-30T03:14:38.733Z,16.67
2022-08-30T03:17:40.752Z,16.43
2022-08-30T03:20:43.842Z,16.97
2022-08-30T03:23:47.813Z,16.50
2022-08-30T03:26:49.468Z,17.10
2022-08-30T03:29:51.109Z,16.90
2022-08-30T03:32:52.752Z,16.53
2022-08-30T03:35:54.384Z,15.80
2022-08-30T03:38:56.124Z,16.50
2022-08-30T03:41:57.720Z,16.60
2022-08-30T03:45:02.475Z,16.10
2022-08-30T03:48:04.281Z,16.33
2022-08-30T03:51:06.158Z,15.90
2022-08-30T03:54:07.785Z,17.03
2022-08-30T03:57:09.429Z,16.00
2022-08-30T04:00:21.587Z,15.73
2022-08-30T04:03:26.089Z,16.43
2022-08-30T04:06:28.453Z,16.40
2022-08-30T04:09:30.076Z,15.83
2022-08-30T04:12:31.724Z,16.07
2022-08-30T04:15:33.376Z,15.50
2022-08-30T04:18:35.674Z,15.70
2022-08-30T04:21:42.786Z,15.23
2022-08-30T04:24:45.162Z,14.87
2022-08-30T04:27:48.163Z,14.97
2022-08-30T04:30:49.833Z,16.13
2022-08-30T04:33:51.468Z,14.60
2022-08-30T04:36:53.113Z,14.87
2022-08-30T04:40:00.745Z,14.33
2022-08-30T04:43:02.918Z,13.90
2022-08-30T04:46:08.902Z,14.80
2022-08-30T04:49:10.650Z,13.93
2022-08-30T04:52:12.359Z,14.07
2022-08-30T04:55:18.065Z,13.60
2022-08-30T04:58:21.880Z,12.67
2022-08-30T05:01:25.780Z,13.30
2022-08-30T05:04:27.909Z,12.90
2022-08-30T05:07:30.081Z,12.73
2022-08-30T05:10:32.123Z,12.57
2022-08-30T05:13:35.508Z,12.77
2022-08-30T05:16:38.996Z,12.27
2022-08-30T05:19:40.704Z,11.30
2022-08-30T05:22:50.387Z,12.03
2022-08-30T05:25:55.739Z,12.23
2022-08-30T05:28:57.786Z,12.53
2022-08-30T05:31:59.599Z,13.33
2022-08-30T05:35:01.288Z,11.97
2022-08-30T05:38:04.043Z,12.23
2022-08-30T05:41:10.990Z,11.27
2022-08-30T05:44:12.869Z,11.13
2022-08-30T05:47:14.534Z,11.17
2022-08-30T05:50:16.401Z,10.97
2022-08-30T05:53:18.080Z,10.70
2022-08-30T05:56:25.227Z,10.43
2022-08-30T05:59:27.766Z,10.07
2022-08-30T06:02:29.504Z,10.80
2022-08-30T06:05:31.188Z,10.47
2022-08-30T06:08:36.374Z,9.80
2022-08-30T06:11:38.020Z,9.37
2022-08-30T06:14:39.707Z,9.50
2022-08-30T06:17:41.457Z,9.53
2022-08-30T06:20:43.882Z,8.80
2022-08-30T06:23:45.647Z,8.70
2022-08-30T06:26:47.674Z,8.73
2022-08-30T06:29:51.485Z,7.68
2022-08-30T06:32:53.308Z,8.30
2022-08-30T06:35:58.339Z,7.80
2022-08-30T06:39:01.220Z,15.13
2022-08-30T06:42:02.941Z,7.47
2022-08-30T06:45:10.883Z,7.28
2022-08-30T06:48:12.933Z,6.78
2022-08-30T06:51:14.843Z,7.22
2022-08-30T06:54:17.177Z,7.65
2022-08-30T06:57:18.810Z,7.93
2022-08-30T07:00:20.518Z,9.52
2022-08-30T07:03:22.486Z,8.10
2022-08-30T07:06:25.154Z,7.50
2022-08-30T07:09:27.091Z,6.45
2022-08-30T07:12:29.056Z,8.00
2022-08-30T07:15:30.775Z,6.90
2022-08-30T07:18:54.682Z,8.45
2022-08-30T07:21:56.555Z,7.28
2022-08-30T07:24:58.200Z,7.15
2022-08-30T07:27:59.984Z,6.95
2022-08-30T07:31:02.212Z,7.47
2022-08-30T07:34:04.381Z,7.72
2022-08-30T07:37:06.153Z,6.22
2022-08-30T07:40:08.072Z,6.45
2022-08-30T07:43:09.886Z,7.40
2022-08-30T07:46:12.076Z,6.57
2022-08-30T07:49:13.784Z,6.82
2022-08-30T07:52:15.471Z,6.05
2022-08-30T07:55:17.110Z,8.45
2022-08-30T07:58:19.386Z,6.93
2022-08-30T08:01:22.376Z,6.53
2022-08-30T08:04:24.364Z,6.15
2022-08-30T08:07:25.967Z,6.63
2022-08-30T08:10:28.136Z,6.43
2022-08-30T08:13:32.623Z,7.22
2022-08-30T08:16:35.896Z,6.70
2022-08-30T08:19:37.508Z,6.13
2022-08-30T08:22:40.186Z,6.38
2022-08-30T08:25:42.036Z,9.40
2022-08-30T08:28:45.034Z,6.10
2022-08-30T08:31:47.220Z,7.28
2022-08-30T08:34:48.924Z,6.95
2022-08-30T08:37:50.609Z,6.10
2022-08-30T08:41:18.358Z,6.03
2022-08-30T08:44:25.617Z,7.07
2022-08-30T08:47:41.542Z,6.13
2022-08-30T08:51:03.504Z,11.63
2022-08-30T08:54:10.649Z,6.15
2022-08-30T08:57:15.294Z,6.20
2022-08-30T09:00:17.929Z,8.27
2022-08-30T09:03:21.562Z,9.55
2022-08-30T09:06:28.510Z,6.60
2022-08-30T09:09:32.511Z,7.30
2022-08-30T09:12:34.254Z,6.30
2022-08-30T09:15:36.796Z,6.38
2022-08-30T09:18:45.616Z,6.10
2022-08-30T09:21:56.238Z,6.43
2022-08-30T09:25:01.071Z,6.35
2022-08-30T09:28:13.062Z,7.90
2022-08-30T09:31:17.587Z,6.53
2022-08-30T09:34:20.839Z,6.65
2022-08-30T09:37:31.300Z,8.30
2022-08-30T09:40:42.059Z,7.00
2022-08-30T09:43:43.769Z,6.75
2022-08-30T09:46:45.363Z,6.35
2022-08-30T09:49:47.573Z,6.05
2022-08-30T09:52:57.782Z,6.82
2022-08-30T09:56:05.576Z,6.20
2022-08-30T09:59:13.446Z,7.13
2022-08-30T10:02:33.863Z,6.75
2022-08-30T10:05:47.512Z,6.57
2022-08-30T10:08:52.311Z,6.82
2022-08-30T10:11:59.570Z,6.80
2022-08-30T10:15:01.462Z,7.05
2022-08-30T10:18:07.722Z,6.32
2022-08-30T10:21:17.036Z,7.05
2022-08-30T10:24:23.504Z,7.20
2022-08-30T10:27:28.992Z,7.00
2022-08-30T10:30:33.256Z,6.60
2022-08-30T10:33:40.797Z,6.85
2022-08-30T10:36:49.229Z,7.28
2022-08-30T10:39:52.926Z,6.88
2022-08-30T10:43:00.507Z,7.03
2022-08-30T10:46:05.615Z,6.32
2022-08-30T10:49:10.656Z,7.18
2022-08-30T10:52:12.355Z,6.70
2022-08-30T10:55:15.780Z,6.85
2022-08-30T10:58:18.422Z,6.50
2022-08-30T11:01:31.156Z,7.00
2022-08-30T11:04:33.676Z,7.03
2022-08-30T11:07:35.295Z,7.03
2022-08-30T11:10:47.851Z,7.57
2022-08-30T11:13:56.869Z,7.07
2022-08-30T11:17:00.339Z,7.43
2022-08-30T11:20:03.703Z,6.78
2022-08-30T11:23:20.724Z,6.72
2022-08-30T11:26:40.861Z,7.47
2022-08-30T11:29:47.582Z,7.75
2022-08-30T11:33:02.159Z,8.95
2022-08-30T11:36:04.044Z,7.50
2022-08-30T11:39:08.091Z,7.80
2022-08-30T11:42:30.166Z,7.70
2022-08-30T11:45:36.252Z,7.65
2022-08-30T11:48:40.371Z,8.00
2022-08-30T11:55:38.304Z,7.90
2022-08-30T11:59:04.269Z,8.15
2022-08-30T12:02:06.944Z,7.72
2022-08-30T12:05:29.532Z,7.20
2022-08-30T12:08:33.424Z,7.50
2022-08-30T12:11:35.050Z,7.70
2022-08-30T12:14:40.838Z,7.82
2022-08-30T12:18:01.574Z,7.43
2022-08-30T12:21:23.530Z,8.07
2022-08-30T12:24:32.552Z,7.82
2022-08-30T12:27:34.547Z,8.48
2022-08-30T12:30:40.074Z,8.20
2022-08-30T12:33:47.288Z,8.75
2022-08-30T12:36:53.595Z,8.20
2022-08-30T12:40:01.070Z,8.25
2022-08-30T12:43:07.733Z,7.57
2022-08-30T12:46:11.895Z,7.80
2022-08-30T12:49:15.171Z,7.95
2022-08-30T12:52:16.719Z,7.97
2022-08-30T12:55:23.584Z,8.60
2022-08-30T12:58:37.467Z,7.72
2022-08-30T13:01:39.198Z,8.48
2022-08-30T13:04:41.247Z,8.85
2022-08-30T13:07:43.634Z,7.80
2022-08-30T13:10:49.748Z,10.32
2022-08-30T13:13:55.069Z,8.13
2022-08-30T13:17:06.440Z,8.30
2022-08-30T13:20:17.566Z,8.48
2022-08-30T13:23:24.014Z,8.35
2022-08-30T13:26:26.086Z,8.45
2022-08-30T13:29:29.536Z,8.75
2022-08-30T13:32:38.912Z,8.77
2022-08-30T13:35:40.786Z,8.57
2022-08-30T13:38:43.125Z,8.57
2022-08-30T13:41:44.847Z,9.40
2022-08-30T13:44:47.820Z,9.23
2022-08-30T13:47:50.136Z,8.70
2022-08-30T13:50:51.992Z,9.25
2022-08-30T13:53:54.167Z,8.75
2022-08-30T13:56:56.382Z,8.75
2022-08-30T13:59:58.223Z,8.77
2022-08-30T14:03:00.368Z,9.05
2022-08-30T14:06:33.536Z,8.93
2022-08-30T14:09:23.789Z,8.50
2022-08-30T14:15:49.245Z,9.30
2022-08-30T14:18:51.401Z,9.75
2022-08-30T14:21:53.113Z,9.13
2022-08-30T14:24:54.722Z,9.93
2022-08-30T14:27:57.171Z,9.27
2022-08-30T14:30:58.832Z,9.63
2022-08-30T14:34:01.341Z,10.20
2022-08-30T14:37:05.295Z,11.20
2022-08-30T14:40:08.999Z,10.77
2022-08-30T14:43:10.787Z,11.20
2022-08-30T14:46:12.653Z,9.40
2022-08-30T14:49:14.944Z,9.75
2022-08-30T14:52:17.126Z,9.73
2022-08-30T14:55:18.831Z,9.43
2022-08-30T14:58:20.502Z,11.25
2022-08-30T15:01:22.696Z,8.43
2022-08-30T15:04:24.511Z,9.88
2022-08-30T15:07:26.949Z,9.55
2022-08-30T15:10:28.850Z,9.80
2022-08-30T15:13:30.545Z,10.15
2022-08-30T15:16:35.018Z,10.18
2022-08-30T15:19:36.765Z,9.75
2022-08-30T15:22:40.288Z,10.25
2022-08-30T15:25:43.511Z,9.07
2022-08-30T15:28:45.305Z,9.85
2022-08-30T15:31:49.834Z,9.50
2022-08-30T15:34:55.751Z,9.63
2022-08-30T15:37:58.144Z,9.40
2022-08-30T15:41:03.618Z,12.50
2022-08-30T15:44:06.487Z,10.35
2022-08-30T15:47:08.747Z,10.13
2022-08-30T15:50:10.599Z,10.03
2022-08-30T15:53:12.684Z,9.82
2022-08-30T15:56:14.922Z,18.45
2022-08-30T15:59:17.651Z,11.03
2022-08-30T16:02:20.623Z,10.68
2022-08-30T16:05:29.469Z,11.38
2022-08-30T16:08:31.128Z,10.93
2022-08-30T16:11:32.811Z,10.87
2022-08-30T16:14:34.935Z,11.77
2022-08-30T16:17:36.726Z,11.33
2022-08-30T16:20:41.717Z,10.30
2022-08-30T16:23:44.090Z,10.57
2022-08-30T16:26:46.381Z,10.83
2022-08-30T16:29:48.500Z,10.27
2022-08-30T16:32:53.553Z,11.20
2022-08-30T16:35:57.772Z,11.57
2022-08-30T16:38:59.581Z,12.40
2022-08-30T16:42:03.284Z,11.90
2022-08-30T16:45:10.464Z,12.37
2022-08-30T16:48:13.455Z,13.57
2022-08-30T16:51:16.648Z,13.77
2022-08-30T16:54:18.384Z,13.20
2022-08-30T16:57:20.113Z,13.27
2022-08-30T17:00:21.983Z,13.43
2022-08-30T17:03:23.608Z,13.63
2022-08-30T17:06:25.560Z,13.60
2022-08-30T17:09:27.371Z,13.23
2022-08-30T17:12:28.963Z,13.50
2022-08-30T17:15:30.788Z,14.40
2022-08-30T17:18:34.079Z,15.50
2022-08-30T17:21:36.179Z,13.63
2022-08-30T17:24:40.680Z,13.67
2022-08-30T17:27:42.281Z,14.33
2022-08-30T17:30:44.036Z,13.83
2022-08-30T17:33:46.980Z,14.17
2022-08-30T17:36:48.948Z,14.47
2022-08-30T17:39:50.877Z,14.63
2022-08-30T17:42:52.871Z,14.70
2022-08-30T17:45:54.468Z,14.00
2022-08-30T17:49:00.939Z,14.40
2022-08-30T17:52:03.985Z,13.63
2022-08-30T17:55:07.532Z,15.00
2022-08-30T17:58:09.156Z,14.70
2022-08-30T18:01:13.634Z,16.20
2022-08-30T18:04:19.466Z,16.27
2022-08-30T18:07:21.543Z,15.23
2022-08-30T18:10:33.951Z,13.40
2022-08-30T18:13:37.184Z,14.40
2022-08-30T18:16:49.915Z,14.77
2022-08-30T18:19:55.356Z,14.10
2022-08-30T18:22:59.415Z,14.43
2022-08-30T18:26:02.139Z,14.00
2022-08-30T18:29:04.412Z,15.93
2022-08-30T18:32:06.299Z,15.60
2022-08-30T18:35:11.266Z,16.00
2022-08-30T18:38:14.067Z,15.73
2022-08-30T18:41:16.636Z,14.83
2022-08-30T18:44:27.782Z,14.37
2022-08-30T18:47:30.605Z,13.97
2022-08-30T18:50:32.996Z,13.93
2022-08-30T18:53:35.441Z,15.17
2022-08-30T18:56:39.064Z,13.70
2022-08-30T18:59:41.792Z,15.03
2022-08-30T19:02:44.739Z,13.13
2022-08-30T19:05:47.436Z,14.40
2022-08-30T19:08:49.209Z,15.60
2022-08-30T19:11:52.344Z,14.97
2022-08-30T19:14:54.283Z,14.10
2022-08-30T19:17:58.320Z,14.40
2022-08-30T19:21:00.047Z,14.40
2022-08-30T19:24:02.596Z,14.80
2022-08-30T19:27:04.327Z,15.43
2022-08-30T19:30:07.755Z,15.10
2022-08-30T19:33:11.531Z,15.00
2022-08-30T19:36:13.456Z,14.50
2022-08-30T19:39:15.234Z,15.13
2022-08-30T19:42:16.910Z,15.07
2022-08-30T19:45:21.709Z,14.10
2022-08-30T19:48:24.719Z,13.93
2022-08-30T19:51:34.142Z,14.83
2022-08-30T19:54:37.308Z,13.73
2022-08-30T19:57:38.978Z,14.37
2022-08-30T20:00:45.185Z,13.50
2022-08-30T20:03:57.329Z,13.47
2022-08-30T20:06:59.126Z,14.00
2022-08-30T20:10:03.325Z,13.37
2022-08-30T20:13:05.710Z,14.33
2022-08-30T20:16:11.519Z,14.60
2022-08-30T20:19:16.084Z,13.83
2022-08-30T20:22:26.735Z,13.97
2022-08-30T20:25:28.402Z,14.83
2022-08-30T20:28:31.258Z,13.57
2022-08-30T20:31:34.228Z,14.30
2022-08-30T20:34:36.396Z,13.70
2022-08-30T20:37:38.775Z,13.10
2022-08-30T20:40:40.651Z,14.40
2022-08-30T20:43:42.862Z,13.80
2022-08-30T20:46:45.360Z,15.83
2022-08-30T20:49:47.245Z,17.03
2022-08-30T20:52:50.988Z,17.13
2022-08-30T20:55:52.668Z,17.93
2022-08-30T20:58:54.334Z,17.57
2022-08-30T21:01:57.403Z,19.93
2022-08-30T21:04:59.852Z,19.00
2022-08-30T21:08:01.599Z,20.30
2022-08-30T21:11:12.376Z,21.90
2022-08-30T21:14:14.014Z,21.53
2022-08-30T21:17:16.385Z,22.53
2022-08-30T21:20:18.067Z,20.40
2022-08-30T21:23:19.695Z,19.67
2022-08-30T21:26:21.334Z,20.13
2022-08-30T21:29:23.049Z,20.43
2022-08-30T21:32:24.724Z,18.40
2022-08-30T21:35:44.840Z,19.07
2022-08-30T21:38:46.479Z,18.63
2022-08-30T21:41:49.006Z,18.90
2022-08-30T21:44:50.626Z,19.20
2022-08-30T21:47:52.327Z,17.67
2022-08-30T21:50:55.396Z,19.10
2022-08-30T21:53:57.403Z,19.57
2022-08-30T21:57:00.785Z,19.30
2022-08-30T22:00:04.726Z,19.80
2022-08-30T22:03:06.854Z,18.90
2022-08-30T22:06:09.669Z,19.03
2022-08-30T22:09:13.690Z,18.53
2022-08-30T22:12:15.362Z,18.70
2022-08-30T22:15:17.692Z,18.27
2022-08-30T22:18:19.320Z,17.93
2022-08-30T22:21:22.898Z,17.60
2022-08-30T22:24:24.490Z,18.33
2022-08-30T22:27:26.114Z,19.40
2022-08-30T22:30:27.895Z,17.80
2022-08-30T22:33:30.022Z,18.23
2022-08-30T22:36:33.074Z,19.47
2022-08-30T22:39:34.720Z,19.50
2022-08-30T22:42:36.846Z,17.90
2022-08-30T22:45:38.731Z,19.30
2022-08-30T22:48:41.817Z,18.87
2022-08-30T22:51:43.633Z,20.50
2022-08-30T22:54:46.929Z,19.17
2022-08-30T22:57:48.642Z,19.33
2022-08-30T23:00:54.815Z,19.47
2022-08-30T23:03:57.710Z,18.70
2022-08-30T23:06:59.308Z,19.80
2022-08-30T23:10:01.415Z,20.37
2022-08-30T23:13:03.064Z,20.20
2022-08-30T23:16:07.773Z,21.13
2022-08-30T23:19:09.484Z,20.80
2022-08-30T23:22:11.157Z,21.23
2022-08-30T23:25:32.799Z,20.20
2022-08-30T23:29:01.474Z,20.77
2022-08-30T23:32:21.745Z,20.40
2022-08-30T23:35:42.111Z,19.93
2022-08-30T23:39:02.470Z,19.50
2022-08-30T23:42:24.283Z,20.57
2022-08-30T23:45:44.729Z,21.17
2022-08-30T23:49:05.771Z,19.70
2022-08-30T23:52:25.959Z,19.53
2022-08-30T23:55:46.219Z,19.87
2022-08-30T23:59:06.646Z,19.57
